Time;durP1;ratioP1;P1;durP2;ratioP2;P2;SDS_P1;SDS_P2;PMS_P1;PMS_P2;Temp;Humidity;BMP_temperature;BMP_pressure;BME280_temperature;BME280_humidity;BME280_pressure;Samples;Min_cycle;Max_cycle;Signal;HPM_P1;HPM_P2
2022/08/24 00:01:15;;;;;;;3.50;1.92;;;;;;;;;;5021952;28;20022;-83
2022/08/24 00:03:42;;;;;;;3.90;1.88;;;;;;;;;;5020923;28;20049;-83
2022/08/24 00:06:13;;;;;;;2.58;2.00;;;;;;;;;;5020564;28;20038;-81
2022/08/24 00:08:40;;;;;;;3.55;2.00;;;;;;;;;;5020757;28;20053;-82
2022/08/24 00:11:06;;;;;;;3.40;2.10;;;;;;;;;;5019706;28;20029;-83
2022/08/24 00:13:32;;;;;;;3.70;2.20;;;;;;;;;;5020867;28;20038;-83
2022/08/24 00:15:57;;;;;;;4.63;2.03;;;;;;;;;;5021500;28;20034;-83
2022/08/24 00:18:23;;;;;;;3.80;1.85;;;;;;;;;;5019871;28;20037;-83
2022/08/24 00:20:50;;;;;;;2.78;1.92;;;;;;;;;;5020749;28;20049;-83
2022/08/24 00:23:16;;;;;;;3.90;1.98;;;;;;;;;;5021309;28;20050;-83
2022/08/24 00:25:42;;;;;;;2.75;2.03;;;;;;;;;;5020276;28;20475;-83
2022/08/24 00:28:08;;;;;;;3.78;2.10;;;;;;;;;;5021066;28;20582;-83
2022/08/24 00:30:34;;;;;;;7.78;2.58;;;;;;;;;;5020926;28;20037;-83
2022/08/24 00:33:00;;;;;;;3.42;2.00;;;;;;;;;;5018586;28;20042;-83
2022/08/24 00:35:26;;;;;;;3.97;2.20;;;;;;;;;;5018886;28;20034;-83
2022/08/24 00:37:52;;;;;;;2.83;1.95;;;;;;;;;;5019087;28;20025;-83
2022/08/24 00:40:29;;;;;;;3.40;2.00;;;;;;;;;;5020000;28;20088;-83
2022/08/24 00:42:55;;;;;;;3.15;2.13;;;;;;;;;;5019608;28;20042;-83
2022/08/24 00:45:23;;;;;;;2.95;2.10;;;;;;;;;;5019054;28;20429;-83
2022/08/24 00:47:51;;;;;;;2.67;2.05;;;;;;;;;;5021228;28;20038;-83
2022/08/24 00:50:24;;;;;;;3.40;2.20;;;;;;;;;;5019381;28;20038;-83
2022/08/24 00:52:58;;;;;;;5.13;2.30;;;;;;;;;;5021726;28;20042;-83
2022/08/24 00:55:32;;;;;;;4.93;2.28;;;;;;;;;;5022132;28;20045;-81
2022/08/24 00:58:06;;;;;;;5.70;2.17;;;;;;;;;;5022186;28;20059;-84
2022/08/24 01:00:38;;;;;;;3.28;2.05;;;;;;;;;;5023310;28;20088;-84
2022/08/24 01:03:05;;;;;;;3.63;2.20;;;;;;;;;;5024018;28;20056;-83
2022/08/24 01:05:33;;;;;;;3.30;2.13;;;;;;;;;;5023185;28;20052;-84
2022/08/24 01:08:00;;;;;;;3.03;2.10;;;;;;;;;;5022638;28;20049;-83
2022/08/24 01:10:29;;;;;;;3.90;2.22;;;;;;;;;;5005846;28;20030;-83
2022/08/24 01:12:58;;;;;;;3.42;2.00;;;;;;;;;;5022290;28;20223;-83
2022/08/24 01:15:23;;;;;;;3.22;2.03;;;;;;;;;;5021883;28;20072;-83
2022/08/24 01:20:34;;;;;;;2.67;1.80;;;;;;;;;;5023496;28;20040;-83
2022/08/24 01:23:11;;;;;;;5.10;2.30;;;;;;;;;;5022664;28;20053;-84
2022/08/24 01:25:40;;;;;;;2.80;2.00;;;;;;;;;;5022238;28;20529;-83
2022/08/24 01:28:11;;;;;;;3.72;2.22;;;;;;;;;;5022597;28;20406;-83
2022/08/24 01:30:37;;;;;;;2.65;2.10;;;;;;;;;;5023493;28;20034;-83
2022/08/24 01:33:08;;;;;;;4.93;2.30;;;;;;;;;;5021934;28;20033;-83
2022/08/24 01:35:36;;;;;;;2.92;2.05;;;;;;;;;;5021698;28;20402;-83
2022/08/24 01:38:07;;;;;;;2.08;1.88;;;;;;;;;;5022327;28;20034;-84
2022/08/24 01:40:41;;;;;;;3.80;2.25;;;;;;;;;;5023614;28;20034;-82
2022/08/24 01:43:07;;;;;;;3.42;2.10;;;;;;;;;;5022880;28;20038;-83
2022/08/24 01:45:33;;;;;;;2.90;2.05;;;;;;;;;;5021555;28;20126;-83
2022/08/24 01:47:59;;;;;;;3.88;2.10;;;;;;;;;;5021547;28;20110;-83
2022/08/24 01:50:25;;;;;;;2.90;2.00;;;;;;;;;;5005576;28;20041;-83
2022/08/24 01:52:52;;;;;;;2.90;2.08;;;;;;;;;;5020710;28;20033;-83
2022/08/24 01:55:18;;;;;;;3.65;2.25;;;;;;;;;;5022004;28;20137;-83
2022/08/24 01:57:43;;;;;;;2.95;2.10;;;;;;;;;;5022130;28;20128;-83
2022/08/24 02:00:15;;;;;;;2.70;2.03;;;;;;;;;;5021656;28;20139;-83
2022/08/24 02:02:43;;;;;;;2.88;2.17;;;;;;;;;;5022040;28;20517;-83
2022/08/24 02:05:11;;;;;;;2.50;2.10;;;;;;;;;;5021907;28;20030;-83
2022/08/24 02:07:37;;;;;;;6.50;2.35;;;;;;;;;;5020538;28;20029;-83
2022/08/24 02:10:05;;;;;;;3.05;2.20;;;;;;;;;;5005009;28;20034;-83
2022/08/24 02:12:32;;;;;;;3.90;2.25;;;;;;;;;;5006612;28;20064;-83
2022/08/24 02:14:59;;;;;;;2.70;2.20;;;;;;;;;;5022151;28;20483;-83
2022/08/24 02:17:26;;;;;;;3.45;2.25;;;;;;;;;;5026982;28;20042;-83
2022/08/24 02:19:54;;;;;;;4.05;2.17;;;;;;;;;;5021682;28;20054;-83
2022/08/24 02:22:19;;;;;;;3.67;2.20;;;;;;;;;;5022018;28;20096;-83
2022/08/24 02:24:45;;;;;;;3.47;2.40;;;;;;;;;;5021315;28;20026;-82
2022/08/24 02:27:12;;;;;;;3.80;2.60;;;;;;;;;;5021671;28;20044;-83
2022/08/24 02:29:38;;;;;;;3.67;2.28;;;;;;;;;;5019366;28;20030;-82
2022/08/24 02:32:05;;;;;;;5.68;2.30;;;;;;;;;;5022039;28;20034;-82
2022/08/24 02:34:31;;;;;;;3.50;2.40;;;;;;;;;;5020732;28;20048;-83
2022/08/24 02:36:57;;;;;;;3.63;2.30;;;;;;;;;;5022619;28;20061;-83
2022/08/24 02:39:22;;;;;;;2.85;2.33;;;;;;;;;;5021266;28;20038;-83
2022/08/24 02:41:50;;;;;;;5.78;2.30;;;;;;;;;;5021480;28;20034;-83
2022/08/24 02:44:16;;;;;;;6.82;2.15;;;;;;;;;;5021283;28;20065;-83
2022/08/24 02:46:42;;;;;;;4.10;2.20;;;;;;;;;;5022077;28;20030;-83
2022/08/24 02:49:10;;;;;;;4.15;2.50;;;;;;;;;;5021030;28;20061;-83
2022/08/24 02:51:36;;;;;;;5.00;2.25;;;;;;;;;;5021822;28;20053;-82
2022/08/24 02:54:04;;;;;;;4.63;2.35;;;;;;;;;;5004838;28;20121;-82
2022/08/24 02:56:31;;;;;;;3.03;2.50;;;;;;;;;;5020995;28;20088;-83
2022/08/24 02:58:59;;;;;;;3.33;2.30;;;;;;;;;;5004415;28;20038;-83
2022/08/24 03:01:26;;;;;;;2.83;2.20;;;;;;;;;;5005260;28;20042;-82
2022/08/24 03:03:54;;;;;;;5.38;2.25;;;;;;;;;;5020238;28;20044;-83
2022/08/24 03:06:20;;;;;;;2.88;2.28;;;;;;;;;;5003704;28;20061;-83
2022/08/24 03:08:46;;;;;;;2.70;2.10;;;;;;;;;;5020645;28;20045;-82
2022/08/24 03:11:12;;;;;;;3.15;2.40;;;;;;;;;;5035831;28;20403;-83
2022/08/24 03:13:39;;;;;;;3.88;2.10;;;;;;;;;;5021229;28;20529;-82
2022/08/24 03:16:05;;;;;;;3.55;2.00;;;;;;;;;;5004487;28;20040;-83
2022/08/24 03:18:32;;;;;;;4.80;2.40;;;;;;;;;;5020708;28;20077;-83
2022/08/24 03:21:00;;;;;;;3.40;2.22;;;;;;;;;;5020804;28;20080;-83
2022/08/24 03:23:29;;;;;;;2.72;2.25;;;;;;;;;;5020983;28;20510;-82
2022/08/24 03:25:55;;;;;;;3.42;2.42;;;;;;;;;;5019694;28;20053;-82
2022/08/24 03:28:23;;;;;;;6.68;2.45;;;;;;;;;;5019745;28;20056;-83
2022/08/24 03:30:49;;;;;;;5.95;2.33;;;;;;;;;;5020793;28;20029;-83
2022/08/24 03:33:17;;;;;;;5.95;2.45;;;;;;;;;;5004201;28;20030;-83
2022/08/24 03:35:43;;;;;;;3.55;2.30;;;;;;;;;;5019147;28;20030;-83
2022/08/24 03:38:12;;;;;;;2.60;2.25;;;;;;;;;;5019847;28;20060;-83
2022/08/24 03:40:39;;;;;;;4.18;2.53;;;;;;;;;;5019536;28;20034;-82
2022/08/24 03:43:05;;;;;;;3.97;2.38;;;;;;;;;;5019545;28;20061;-82
2022/08/24 03:45:31;;;;;;;3.15;2.53;;;;;;;;;;5019264;28;20041;-83
2022/08/24 03:47:57;;;;;;;3.13;2.30;;;;;;;;;;5019692;28;20033;-83
2022/08/24 03:50:23;;;;;;;3.47;2.40;;;;;;;;;;5019902;28;20033;-83
2022/08/24 03:52:49;;;;;;;5.57;2.67;;;;;;;;;;5002747;28;20030;-83
2022/08/24 03:55:16;;;;;;;3.03;2.40;;;;;;;;;;5002974;28;20026;-83
2022/08/24 03:57:42;;;;;;;3.63;2.50;;;;;;;;;;5019856;28;20030;-83
2022/08/24 04:00:10;;;;;;;4.15;2.33;;;;;;;;;;5019967;28;20038;-83
2022/08/24 04:02:50;;;;;;;2.65;2.30;;;;;;;;;;5017398;28;20494;-83
2022/08/24 04:05:19;;;;;;;3.08;2.42;;;;;;;;;;5019673;28;20034;-82
2022/08/24 04:07:46;;;;;;;4.22;3.00;;;;;;;;;;5019981;28;20136;-83
2022/08/24 04:10:13;;;;;;;3.05;2.63;;;;;;;;;;5018231;28;20454;-83
2022/08/24 04:12:39;;;;;;;3.95;2.80;;;;;;;;;;5003293;28;20030;-83
2022/08/24 04:15:06;;;;;;;5.63;3.08;;;;;;;;;;5018528;28;20097;-83
2022/08/24 04:17:32;;;;;;;3.65;2.80;;;;;;;;;;5019080;28;20037;-83
2022/08/24 04:19:58;;;;;;;6.25;2.80;;;;;;;;;;5018791;28;20052;-83
2022/08/24 04:22:29;;;;;;;4.60;3.22;;;;;;;;;;5018859;28;20080;-83
2022/08/24 04:24:55;;;;;;;7.35;4.10;;;;;;;;;;5018180;28;20049;-83
2022/08/24 04:27:21;;;;;;;4.75;2.60;;;;;;;;;;5018941;28;20026;-83
2022/08/24 04:29:48;;;;;;;4.43;2.53;;;;;;;;;;5002262;28;20033;-83
2022/08/24 04:32:16;;;;;;;4.57;3.10;;;;;;;;;;5016377;28;20494;-83
2022/08/24 04:34:43;;;;;;;3.72;2.70;;;;;;;;;;5018586;28;20149;-81
2022/08/24 04:37:09;;;;;;;3.17;2.80;;;;;;;;;;5019411;28;20054;-82
2022/08/24 04:39:36;;;;;;;5.65;2.80;;;;;;;;;;5018908;28;20038;-83
2022/08/24 04:42:30;;;;;;;4.72;2.50;;;;;;;;;;5016457;28;20046;-83
2022/08/24 04:44:56;;;;;;;5.28;2.90;;;;;;;;;;5018589;28;20057;-82
2022/08/24 04:47:23;;;;;;;5.00;3.60;;;;;;;;;;5019421;28;20049;-83
2022/08/24 04:49:48;;;;;;;4.20;2.90;;;;;;;;;;5017917;28;20072;-82
2022/08/24 04:52:14;;;;;;;2.97;2.63;;;;;;;;;;5018738;28;20034;-82
2022/08/24 04:54:41;;;;;;;2.72;2.40;;;;;;;;;;5019301;28;20034;-82
2022/08/24 04:57:15;;;;;;;5.47;2.60;;;;;;;;;;5019024;28;20037;-83
2022/08/24 04:59:42;;;;;;;4.88;2.50;;;;;;;;;;5019550;28;20053;-82
2022/08/24 05:02:08;;;;;;;4.80;2.75;;;;;;;;;;5018980;28;20049;-82
2022/08/24 05:04:35;;;;;;;3.95;2.80;;;;;;;;;;5034696;28;20029;-83
2022/08/24 05:07:00;;;;;;;3.40;2.60;;;;;;;;;;5016927;28;20030;-82
2022/08/24 05:09:26;;;;;;;3.78;2.83;;;;;;;;;;5019079;28;20034;-82
2022/08/24 05:11:52;;;;;;;5.28;2.33;;;;;;;;;;5022046;28;20116;-83
2022/08/24 05:14:22;;;;;;;5.90;2.63;;;;;;;;;;5020447;28;20022;-83
2022/08/24 05:16:48;;;;;;;3.85;2.80;;;;;;;;;;5019360;28;20068;-83
2022/08/24 05:19:13;;;;;;;3.10;2.70;;;;;;;;;;5018445;28;20510;-84
2022/08/24 05:21:41;;;;;;;3.25;2.80;;;;;;;;;;5018176;28;20032;-82
2022/08/24 05:24:06;;;;;;;3.95;2.72;;;;;;;;;;5019014;28;20069;-83
2022/08/24 05:26:32;;;;;;;3.22;2.75;;;;;;;;;;5018138;28;20034;-83
2022/08/24 05:29:01;;;;;;;4.47;2.72;;;;;;;;;;5018759;28;20045;-83
2022/08/24 05:31:33;;;;;;;4.88;2.67;;;;;;;;;;5018613;28;20092;-82
2022/08/24 05:34:08;;;;;;;4.13;2.70;;;;;;;;;;5018386;28;20379;-82
2022/08/24 05:36:37;;;;;;;2.78;2.35;;;;;;;;;;5018404;28;20037;-83
2022/08/24 05:39:08;;;;;;;4.85;2.65;;;;;;;;;;5018262;28;20088;-83
2022/08/24 05:41:37;;;;;;;5.60;2.70;;;;;;;;;;5017247;28;20041;-82
2022/08/24 05:44:11;;;;;;;3.78;2.30;;;;;;;;;;5006839;28;20030;-82
2022/08/24 05:46:36;;;;;;;3.40;2.40;;;;;;;;;;5023393;28;20038;-82
2022/08/24 05:49:02;;;;;;;4.72;2.60;;;;;;;;;;5022123;28;20034;-82
2022/08/24 05:51:31;;;;;;;3.35;2.67;;;;;;;;;;5024696;28;20026;-81
2022/08/24 05:54:03;;;;;;;5.10;2.33;;;;;;;;;;5016443;28;20577;-79
2022/08/24 05:56:35;;;;;;;4.45;2.70;;;;;;;;;;5023682;28;20037;-81
2022/08/24 05:59:01;;;;;;;3.72;2.60;;;;;;;;;;5024213;28;20056;-81
2022/08/24 06:01:27;;;;;;;3.63;2.70;;;;;;;;;;5024458;28;20030;-80
2022/08/24 06:03:56;;;;;;;5.03;2.70;;;;;;;;;;5041362;28;20129;-81
2022/08/24 06:06:24;;;;;;;3.22;2.53;;;;;;;;;;5022095;28;20033;-81
2022/08/24 06:08:53;;;;;;;2.92;2.50;;;;;;;;;;5023089;28;20038;-82
2022/08/24 06:11:33;;;;;;;4.72;2.60;;;;;;;;;;5006706;28;20498;-83
2022/08/24 06:14:09;;;;;;;3.42;2.40;;;;;;;;;;5021174;28;20030;-82
2022/08/24 06:16:43;;;;;;;4.18;2.50;;;;;;;;;;5022112;28;20080;-82
2022/08/24 06:19:11;;;;;;;3.47;2.35;;;;;;;;;;5006987;28;20030;-82
2022/08/24 06:21:37;;;;;;;2.88;2.33;;;;;;;;;;5022517;28;20060;-82
2022/08/24 06:24:05;;;;;;;8.57;2.40;;;;;;;;;;5022530;28;20036;-82
2022/08/24 06:29:18;;;;;;;2.85;2.25;;;;;;;;;;5019343;28;20038;-81
2022/08/24 06:31:47;;;;;;;5.53;2.63;;;;;;;;;;5020650;28;20033;-81
2022/08/24 06:34:15;;;;;;;4.07;2.40;;;;;;;;;;5021432;28;20041;-84
2022/08/24 06:36:41;;;;;;;3.55;2.25;;;;;;;;;;5020084;28;20034;-85
2022/08/24 06:39:08;;;;;;;2.72;2.20;;;;;;;;;;5019278;28;20129;-84
2022/08/24 06:41:37;;;;;;;5.65;2.20;;;;;;;;;;5020138;28;20050;-84
2022/08/24 06:44:07;;;;;;;6.25;2.15;;;;;;;;;;5022629;28;20056;-85
2022/08/24 06:46:44;;;;;;;3.03;2.28;;;;;;;;;;5022523;28;20129;-84
2022/08/24 06:49:10;;;;;;;6.40;2.30;;;;;;;;;;5006557;28;20034;-84
2022/08/24 06:51:36;;;;;;;4.43;2.40;;;;;;;;;;5023828;28;20112;-83
2022/08/24 06:54:02;;;;;;;3.90;1.98;;;;;;;;;;5021167;28;20056;-84
2022/08/24 06:56:29;;;;;;;5.55;2.28;;;;;;;;;;5022774;28;20494;-85
2022/08/24 06:58:55;;;;;;;4.50;2.03;;;;;;;;;;5021717;28;20030;-85
2022/08/24 07:01:27;;;;;;;3.38;2.15;;;;;;;;;;5003445;28;20038;-84
2022/08/24 07:03:54;;;;;;;3.03;2.10;;;;;;;;;;5020005;28;20037;-84
2022/08/24 07:06:45;;;;;;;2.47;1.90;;;;;;;;;;5020750;28;20372;-83
2022/08/24 07:09:12;;;;;;;2.80;2.13;;;;;;;;;;5020327;28;20038;-84
2022/08/24 07:11:38;;;;;;;4.38;2.03;;;;;;;;;;5019805;28;20026;-82
2022/08/24 07:14:04;;;;;;;3.85;2.20;;;;;;;;;;5004456;28;20558;-84
2022/08/24 07:16:30;;;;;;;3.47;2.00;;;;;;;;;;5020790;28;20061;-85
2022/08/24 07:19:02;;;;;;;4.15;2.20;;;;;;;;;;5020537;28;20068;-84
2022/08/24 07:21:28;;;;;;;3.45;2.20;;;;;;;;;;5020043;28;20033;-84
2022/08/24 07:23:56;;;;;;;3.72;2.28;;;;;;;;;;5022076;28;20034;-84
2022/08/24 07:26:25;;;;;;;9.18;2.17;;;;;;;;;;5003959;28;20494;-84
2022/08/24 07:28:59;;;;;;;4.03;2.20;;;;;;;;;;5021118;28;20187;-83
2022/08/24 07:31:26;;;;;;;5.10;2.00;;;;;;;;;;5020155;28;20084;-86
2022/08/24 07:34:02;;;;;;;3.05;2.10;;;;;;;;;;5021252;28;20038;-85
2022/08/24 07:36:28;;;;;;;4.82;2.00;;;;;;;;;;5020677;28;20034;-83
2022/08/24 07:38:54;;;;;;;3.80;2.05;;;;;;;;;;5021298;28;20524;-86
2022/08/24 07:41:21;;;;;;;3.58;1.95;;;;;;;;;;5021127;28;20045;-85
2022/08/24 07:43:48;;;;;;;3.60;2.10;;;;;;;;;;5021613;28;20057;-86
2022/08/24 07:46:13;;;;;;;4.43;2.00;;;;;;;;;;5019234;28;20033;-84
2022/08/24 07:48:39;;;;;;;5.78;2.15;;;;;;;;;;5020279;28;20104;-85
2022/08/24 07:51:11;;;;;;;3.40;2.40;;;;;;;;;;5019893;28;20048;-85
2022/08/24 07:53:39;;;;;;;4.13;2.10;;;;;;;;;;5019387;28;20124;-84
2022/08/24 07:56:05;;;;;;;2.28;1.90;;;;;;;;;;5019327;28;20037;-83
2022/08/24 07:58:33;;;;;;;3.83;2.30;;;;;;;;;;5019146;28;20064;-85
2022/08/24 08:00:59;;;;;;;2.95;1.98;;;;;;;;;;5004844;28;20034;-86
2022/08/24 08:03:26;;;;;;;4.30;2.45;;;;;;;;;;5019714;28;20033;-87
2022/08/24 08:05:56;;;;;;;5.95;2.50;;;;;;;;;;5019487;28;20037;-86
2022/08/24 08:08:23;;;;;;;4.45;2.40;;;;;;;;;;5002611;28;20093;-85
2022/08/24 08:10:49;;;;;;;5.13;2.55;;;;;;;;;;5018682;28;20084;-84
2022/08/24 08:13:15;;;;;;;3.70;2.47;;;;;;;;;;5019583;28;20029;-85
2022/08/24 08:15:40;;;;;;;5.20;2.55;;;;;;;;;;5020051;28;20038;-87
2022/08/24 08:18:09;;;;;;;5.10;2.60;;;;;;;;;;5037189;28;20030;-86
2022/08/24 08:20:39;;;;;;;3.78;2.17;;;;;;;;;;5020147;28;20414;-86
2022/08/24 08:25:54;;;;;;;6.25;2.45;;;;;;;;;;5022518;28;20073;-87
2022/08/24 08:28:33;;;;;;;5.60;2.13;;;;;;;;;;5020766;28;20056;-86
2022/08/24 08:31:00;;;;;;;3.28;2.40;;;;;;;;;;5021017;28;20030;-86
2022/08/24 08:33:26;;;;;;;3.00;2.30;;;;;;;;;;5019882;28;20724;-85
2022/08/24 08:36:02;;;;;;;3.50;2.40;;;;;;;;;;5021816;28;20060;-86
2022/08/24 08:38:28;;;;;;;4.82;2.03;;;;;;;;;;5022292;28;20053;-86
2022/08/24 08:41:18;;;;;;;6.72;2.40;;;;;;;;;;5021375;28;20038;-85
2022/08/24 08:44:32;;;;;;;3.05;2.10;;;;;;;;;;5006514;28;20659;-86
2022/08/24 08:47:10;;;;;;;3.40;2.13;;;;;;;;;;5003252;28;20105;-84
2022/08/24 08:49:40;;;;;;;5.55;2.38;;;;;;;;;;5020768;28;20121;-84
2022/08/24 08:52:36;;;;;;;5.72;2.28;;;;;;;;;;5020352;28;20041;-85
2022/08/24 08:55:15;;;;;;;5.45;2.42;;;;;;;;;;5020497;28;20057;-85
2022/08/24 08:57:41;;;;;;;4.63;2.50;;;;;;;;;;5022126;28;20086;-85
2022/08/24 09:00:30;;;;;;;4.15;2.55;;;;;;;;;;5020733;28;20073;-85
2022/08/24 09:03:07;;;;;;;4.65;2.85;;;;;;;;;;5021052;28;20610;-85
2022/08/24 09:06:19;;;;;;;3.45;2.22;;;;;;;;;;5020331;28;20037;-84
2022/08/24 09:09:12;;;;;;;3.90;2.38;;;;;;;;;;5020928;28;20041;-85
2022/08/24 09:11:40;;;;;;;;;;;;;;;;;;5021182;28;20537;-86
2022/08/24 09:14:28;;;;;;;4.43;2.70;;;;;;;;;;5020158;28;19916;-85
2022/08/24 09:17:12;;;;;;;4.68;2.70;;;;;;;;;;5017904;28;20054;-84
2022/08/24 09:19:57;;;;;;;9.90;3.00;;;;;;;;;;5002302;28;20494;-84
2022/08/24 09:22:22;;;;;;;5.50;2.80;;;;;;;;;;5019656;28;20029;-84
2022/08/24 09:24:53;;;;;;;4.55;3.00;;;;;;;;;;5018482;28;20124;-84
2022/08/24 09:28:13;;;;;;;5.95;2.60;;;;;;;;;;5012177;28;20506;-84
2022/08/24 09:31:03;;;;;;;4.55;2.65;;;;;;;;;;5018171;28;20109;-84
2022/08/24 09:33:44;;;;;;;4.07;2.92;;;;;;;;;;5019474;28;20470;-85
2022/08/24 09:36:27;;;;;;;4.57;2.92;;;;;;;;;;5019114;28;20045;-84
2022/08/24 09:39:06;;;;;;;5.05;2.90;;;;;;;;;;5019219;28;20387;-84
2022/08/24 09:41:48;;;;;;;3.28;2.80;;;;;;;;;;5019147;28;20040;-84
2022/08/24 09:44:31;;;;;;;4.40;2.72;;;;;;;;;;5019226;28;20511;-84
2022/08/24 09:46:57;;;;;;;;;;;;;;;;;;5019833;28;20042;-84
2022/08/24 09:49:34;;;;;;;5.97;2.80;;;;;;;;;;5019116;28;20008;-84
2022/08/24 09:52:38;;;;;;;4.82;2.97;;;;;;;;;;5019411;28;20045;-84
2022/08/24 09:55:15;;;;;;;5.50;3.53;;;;;;;;;;5019251;28;20030;-84
2022/08/24 09:58:11;;;;;;;4.63;3.05;;;;;;;;;;5019955;28;20038;-84
2022/08/24 10:00:47;;;;;;;3.85;3.03;;;;;;;;;;5018166;28;20076;-84
2022/08/24 10:03:50;;;;;;;4.05;3.20;;;;;;;;;;5019930;28;20653;-84
2022/08/24 10:06:30;;;;;;;3.88;3.13;;;;;;;;;;5019479;28;20487;-84
2022/08/24 10:09:22;;;;;;;6.25;3.08;;;;;;;;;;5019196;28;20080;-84
2022/08/24 10:12:02;;;;;;;4.78;3.20;;;;;;;;;;4978477;28;20092;-84
2022/08/24 10:14:49;;;;;;;4.15;3.10;;;;;;;;;;5019162;28;20057;-84
2022/08/24 10:17:35;;;;;;;4.32;3.05;;;;;;;;;;5017540;28;20040;-84
2022/08/24 10:20:17;;;;;;;4.82;2.80;;;;;;;;;;5017759;28;20029;-84
2022/08/24 10:23:18;;;;;;;5.45;3.00;;;;;;;;;;5018321;28;20077;-84
2022/08/24 10:26:13;;;;;;;5.45;2.80;;;;;;;;;;4980587;28;20042;-83
2022/08/24 10:29:16;;;;;;;3.58;2.80;;;;;;;;;;5016455;28;20034;-84
2022/08/24 10:32:06;;;;;;;7.97;2.70;;;;;;;;;;5017871;28;20302;-84
2022/08/24 10:34:51;;;;;;;8.02;3.20;;;;;;;;;;5023570;28;20123;-84
2022/08/24 10:39:39;;;;;;;6.63;3.13;;;;;;;;;;5036409;28;20117;-84
2022/08/24 10:40:48;;;;;;;4.25;3.25;;;;;;;;;;5035093;28;20026;-84
2022/08/24 10:43:35;;;;;;;7.47;3.55;;;;;;;;;;5037432;28;20033;-84
2022/08/24 10:46:14;;;;;;;7.60;3.30;;;;;;;;;;5036636;28;20112;-85
2022/08/24 10:49:25;;;;;;;6.05;3.00;;;;;;;;;;5036435;28;20033;-82
2022/08/24 10:52:09;;;;;;;5.57;3.13;;;;;;;;;;5038287;28;20080;-84
2022/08/24 10:54:36;;;;;;;4.30;2.83;;;;;;;;;;5038560;28;20105;-84
2022/08/24 10:57:29;;;;;;;6.05;2.80;;;;;;;;;;5038145;28;20053;-85
2022/08/24 11:00:01;;;;;;;;;;;;;;;;;;5037751;28;20524;-83
2022/08/24 11:02:31;;;;;;;4.35;2.88;;;;;;;;;;5036611;28;19936;-83
2022/08/24 11:05:00;;;;;;;5.70;2.72;;;;;;;;;;5036216;28;20408;-83
2022/08/24 11:07:26;;;;;;;4.13;2.80;;;;;;;;;;5036534;28;20037;-83
2022/08/24 11:09:58;;;;;;;5.93;2.72;;;;;;;;;;5036043;28;20554;-82
2022/08/24 11:12:34;;;;;;;5.65;2.65;;;;;;;;;;5034879;28;20037;-83
2022/08/24 11:15:25;;;;;;;5.78;2.55;;;;;;;;;;5034915;28;20033;-83
2022/08/24 11:17:59;;;;;;;5.80;2.58;;;;;;;;;;5034584;28;20044;-83
2022/08/24 11:20:26;;;;;;;3.90;2.30;;;;;;;;;;5034710;28;20045;-83
2022/08/24 11:23:09;;;;;;;5.00;2.50;;;;;;;;;;5036345;28;20086;-83
2022/08/24 11:25:38;;;;;;;4.65;2.70;;;;;;;;;;5035595;28;20406;-83
2022/08/24 11:28:14;;;;;;;4.68;2.50;;;;;;;;;;5035434;28;20037;-83
2022/08/24 11:30:40;;;;;;;6.25;2.47;;;;;;;;;;5035683;28;20038;-83
2022/08/24 11:33:25;;;;;;;3.20;2.50;;;;;;;;;;5034474;28;20049;-83
2022/08/24 11:35:50;;;;;;;4.00;2.80;;;;;;;;;;5035363;28;20037;-83
2022/08/24 11:38:22;;;;;;;5.13;2.47;;;;;;;;;;5036351;28;20049;-83
2022/08/24 11:40:50;;;;;;;8.45;2.75;;;;;;;;;;5033523;28;20037;-83
2022/08/24 11:43:34;;;;;;;4.38;2.53;;;;;;;;;;5034001;28;20056;-83
2022/08/24 11:46:08;;;;;;;5.70;2.50;;;;;;;;;;5035443;28;20033;-86
2022/08/24 11:48:45;;;;;;;3.40;2.40;;;;;;;;;;5036353;28;20033;-86
2022/08/24 11:51:26;;;;;;;3.90;2.42;;;;;;;;;;5035194;28;20045;-83
2022/08/24 11:54:10;;;;;;;4.93;2.50;;;;;;;;;;5035546;28;20106;-84
2022/08/24 11:56:56;;;;;;;5.07;2.50;;;;;;;;;;5037758;28;20033;-83
2022/08/24 11:59:40;;;;;;;3.90;2.30;;;;;;;;;;5035363;28;20037;-83
2022/08/24 12:02:32;;;;;;;3.17;2.30;;;;;;;;;;5034842;28;20619;-83
2022/08/24 12:05:04;;;;;;;3.58;2.30;;;;;;;;;;5033256;28;20093;-83
2022/08/24 12:07:59;;;;;;;3.20;2.20;;;;;;;;;;5034629;28;20055;-83
2022/08/24 12:10:27;;;;;;;3.97;2.28;;;;;;;;;;5034740;28;20391;-83
2022/08/24 12:12:53;;;;;;;4.20;2.40;;;;;;;;;;5035057;28;20067;-84
2022/08/24 12:15:41;;;;;;;4.28;2.40;;;;;;;;;;5037101;28;20033;-84
2022/08/24 12:18:48;;;;;;;3.10;2.20;;;;;;;;;;5034677;28;20521;-83
2022/08/24 12:21:18;;;;;;;3.33;2.22;;;;;;;;;;5015558;28;20041;-83
2022/08/24 12:23:57;;;;;;;6.95;2.50;;;;;;;;;;5034904;28;20080;-84
2022/08/24 12:26:47;;;;;;;4.53;2.30;;;;;;;;;;5033067;28;20495;-84
2022/08/24 12:29:36;;;;;;;3.88;2.40;;;;;;;;;;5035142;28;20026;-84
2022/08/24 12:32:06;;;;;;;6.53;2.40;;;;;;;;;;5035916;28;20405;-84
2022/08/24 12:35:06;;;;;;;3.00;2.10;;;;;;;;;;5033040;28;20034;-84
2022/08/24 12:37:34;;;;;;;3.22;2.10;;;;;;;;;;5011212;28;20037;-84
2022/08/24 12:40:18;;;;;;;3.63;2.10;;;;;;;;;;5033827;28;20083;-83
2022/08/24 12:42:49;;;;;;;3.28;2.10;;;;;;;;;;5035468;28;20501;-86
2022/08/24 12:45:18;;;;;;;5.75;2.20;;;;;;;;;;5035040;28;20025;-84
2022/08/24 12:48:02;;;;;;;5.07;2.20;;;;;;;;;;5033566;28;20036;-83
2022/08/24 12:50:35;;;;;;;4.88;2.10;;;;;;;;;;5034497;28;20124;-83
2022/08/24 12:53:11;;;;;;;3.22;2.20;;;;;;;;;;5036344;28;20033;-85
2022/08/24 12:56:09;;;;;;;4.82;2.00;;;;;;;;;;5021017;28;20044;-84
2022/08/24 12:58:53;;;;;;;4.45;2.03;;;;;;;;;;5038682;28;20041;-84
2022/08/24 13:01:22;;;;;;;2.72;1.90;;;;;;;;;;5037656;28;20040;-84
2022/08/24 13:04:03;;;;;;;4.78;2.10;;;;;;;;;;5039044;28;20072;-84
2022/08/24 13:06:47;;;;;;;4.13;2.00;;;;;;;;;;5038913;28;20037;-84
2022/08/24 13:09:15;;;;;;;3.22;2.20;;;;;;;;;;5037416;28;20048;-84
2022/08/24 13:11:42;;;;;;;4.72;2.28;;;;;;;;;;5037021;28;20038;-83
2022/08/24 13:14:26;;;;;;;6.35;2.00;;;;;;;;;;5038375;28;20048;-84
2022/08/24 13:16:55;;;;;;;2.72;2.17;;;;;;;;;;5037191;28;20398;-84
2022/08/24 13:19:29;;;;;;;4.72;2.47;;;;;;;;;;5039435;28;20068;-84
2022/08/24 13:21:58;;;;;;;3.00;2.03;;;;;;;;;;5037179;28;20045;-84
2022/08/24 13:24:26;;;;;;;3.63;2.00;;;;;;;;;;5039123;28;20026;-84
2022/08/24 13:26:55;;;;;;;2.75;2.10;;;;;;;;;;5039541;28;20022;-84
2022/08/24 13:29:27;;;;;;;3.55;1.98;;;;;;;;;;5038964;28;20579;-84
2022/08/24 13:31:56;;;;;;;2.90;2.03;;;;;;;;;;5038416;28;20044;-83
2022/08/24 13:34:50;;;;;;;4.75;2.00;;;;;;;;;;5038098;28;20032;-87
2022/08/24 13:37:23;;;;;;;2.92;2.00;;;;;;;;;;5035850;28;20099;-83
2022/08/24 13:40:16;;;;;;;3.72;2.20;;;;;;;;;;5037000;28;20033;-84
2022/08/24 13:42:45;;;;;;;3.03;2.05;;;;;;;;;;5038513;28;20025;-84
2022/08/24 13:45:32;;;;;;;2.88;2.00;;;;;;;;;;5038587;28;20044;-84
2022/08/24 13:48:07;;;;;;;3.47;2.10;;;;;;;;;;5036939;28;20044;-84
2022/08/24 13:51:04;;;;;;;4.07;2.10;;;;;;;;;;5037931;28;20037;-84
2022/08/24 13:53:46;;;;;;;2.45;1.80;;;;;;;;;;5036599;28;20088;-84
2022/08/24 13:56:11;;;;;;;3.85;2.10;;;;;;;;;;5038012;28;20083;-84
2022/08/24 13:58:45;;;;;;;4.25;2.15;;;;;;;;;;5037080;28;20041;-84
2022/08/24 14:01:29;;;;;;;5.03;2.00;;;;;;;;;;5038035;28;20029;-84
2022/08/24 14:04:03;;;;;;;3.33;1.80;;;;;;;;;;5037321;28;20104;-83
2022/08/24 14:06:37;;;;;;;3.13;2.00;;;;;;;;;;5038187;28;20116;-84
2022/08/24 14:09:26;;;;;;;5.47;2.25;;;;;;;;;;5037536;28;20140;-85
2022/08/24 14:12:16;;;;;;;5.38;2.10;;;;;;;;;;5037355;28;20367;-85
2022/08/24 14:15:23;;;;;;;4.82;1.90;;;;;;;;;;5036695;28;20040;-84
2022/08/24 14:17:56;;;;;;;5.00;2.00;;;;;;;;;;4977229;28;20141;-85
2022/08/24 14:20:48;;;;;;;4.70;2.22;;;;;;;;;;5026579;28;20045;-85
2022/08/24 14:23:22;;;;;;;2.33;1.92;;;;;;;;;;5038491;28;20056;-85
2022/08/24 14:25:50;;;;;;;3.10;1.90;;;;;;;;;;5037748;28;20164;-85
2022/08/24 14:28:34;;;;;;;3.22;1.92;;;;;;;;;;5036349;28;20034;-85
2022/08/24 14:31:18;;;;;;;3.17;1.70;;;;;;;;;;5038543;28;20056;-86
2022/08/24 14:34:38;;;;;;;5.22;2.03;;;;;;;;;;5037362;28;20117;-85
2022/08/24 14:37:05;;;;;;;2.65;1.92;;;;;;;;;;4973022;28;20502;-85
2022/08/24 14:39:58;;;;;;;4.88;1.83;;;;;;;;;;5036683;28;20068;-85
2022/08/24 14:42:44;;;;;;;2.70;1.85;;;;;;;;;;5019093;28;20475;-85
2022/08/24 14:45:12;;;;;;;4.15;1.80;;;;;;;;;;5036110;28;20038;-85
2022/08/24 14:48:08;;;;;;;2.85;1.95;;;;;;;;;;5036964;28;20048;-84
2022/08/24 14:50:53;;;;;;;3.38;1.92;;;;;;;;;;5037017;28;20052;-86
2022/08/24 14:53:34;;;;;;;2.35;1.80;;;;;;;;;;5037238;28;20033;-86
2022/08/24 14:56:44;;;;;;;4.63;2.00;;;;;;;;;;5035913;28;20034;-86
2022/08/24 14:59:31;;;;;;;3.08;1.85;;;;;;;;;;4988780;28;20045;-86
2022/08/24 15:02:28;;;;;;;3.65;2.15;;;;;;;;;;5035871;28;20029;-86
2022/08/24 15:05:14;;;;;;;2.55;2.00;;;;;;;;;;5035677;28;20067;-86
2022/08/24 15:07:53;;;;;;;3.72;1.95;;;;;;;;;;5036275;28;20486;-85
2022/08/24 15:10:25;;;;;;;6.85;2.00;;;;;;;;;;5036227;28;20514;-85
2022/08/24 15:12:56;;;;;;;2.85;1.95;;;;;;;;;;5036538;28;20026;-86
2022/08/24 15:15:33;;;;;;;4.47;2.20;;;;;;;;;;5036001;28;20055;-86
2022/08/24 15:18:19;;;;;;;2.92;1.90;;;;;;;;;;5037574;28;20152;-85
2022/08/24 15:21:07;;;;;;;2.20;1.90;;;;;;;;;;5036043;28;20044;-86
2022/08/24 15:23:50;;;;;;;2.55;2.10;;;;;;;;;;5036111;28;20041;-85
2022/08/24 15:26:47;;;;;;;2.75;1.90;;;;;;;;;;5036299;28;20030;-86
2022/08/24 15:29:21;;;;;;;2.72;1.90;;;;;;;;;;5012107;28;20050;-87
2022/08/24 15:32:06;;;;;;;2.28;1.83;;;;;;;;;;5037163;28;20057;-86